createdAt,value
2019-03-27T00:02:23.656Z,7.37
2019-03-27T00:04:53.163Z,7.37
2019-03-27T00:10:30.534Z,7.53
2019-03-27T00:13:00.046Z,6.90
2019-03-27T00:15:30.788Z,8.83
2019-03-27T00:18:00.312Z,7.47
2019-03-27T00:20:29.819Z,7.37
2019-03-27T00:22:59.325Z,7.13
2019-03-27T00:25:28.842Z,5.80
2019-03-27T00:27:59.317Z,7.90
2019-03-27T00:30:28.856Z,6.27
2019-03-27T00:32:58.362Z,6.23
2019-03-27T00:35:27.886Z,6.63
2019-03-27T00:37:57.369Z,7.30
2019-03-27T00:41:00.208Z,7.80
2019-03-27T00:43:29.706Z,7.40
2019-03-27T00:45:59.197Z,7.93
2019-03-27T00:48:28.688Z,6.50
2019-03-27T00:50:58.181Z,8.43
2019-03-27T00:53:27.748Z,8.97
2019-03-27T00:55:57.254Z,9.90
2019-03-27T00:58:26.740Z,8.03
2019-03-27T01:01:19.880Z,7.78
2019-03-27T01:03:49.424Z,6.30
2019-03-27T01:06:18.902Z,7.20
2019-03-27T01:08:48.515Z,8.40
2019-03-27T01:11:18.058Z,6.93
2019-03-27T01:13:47.681Z,7.80
2019-03-27T01:16:17.202Z,7.53
2019-03-27T01:19:06.074Z,6.77
2019-03-27T01:21:35.575Z,6.97
2019-03-27T01:24:05.064Z,6.90
2019-03-27T01:26:34.613Z,6.40
2019-03-27T01:29:04.105Z,6.73
2019-03-27T01:31:33.612Z,6.10
2019-03-27T01:34:03.633Z,7.92
2019-03-27T01:36:33.147Z,7.67
2019-03-27T01:39:02.662Z,5.43
2019-03-27T01:41:32.160Z,6.10
2019-03-27T01:44:01.666Z,7.92
2019-03-27T01:46:31.771Z,7.55
2019-03-27T01:49:01.258Z,8.13
2019-03-27T01:51:30.764Z,7.67
2019-03-27T01:54:00.268Z,7.57
2019-03-27T01:56:29.772Z,7.53
2019-03-27T01:58:59.973Z,6.00
2019-03-27T02:01:29.469Z,6.80
2019-03-27T02:03:58.957Z,10.33
2019-03-27T02:06:28.462Z,7.85
2019-03-27T02:08:57.945Z,7.03
2019-03-27T02:11:28.351Z,7.50
2019-03-27T02:13:57.881Z,7.67
2019-03-27T02:16:27.358Z,8.00
2019-03-27T02:18:56.873Z,11.40
2019-03-27T02:21:27.484Z,7.78
2019-03-27T02:23:56.963Z,9.17
2019-03-27T02:26:26.475Z,9.10
2019-03-27T02:28:55.961Z,8.80
2019-03-27T02:31:25.466Z,7.80
2019-03-27T02:33:54.953Z,9.55
2019-03-27T02:36:24.600Z,7.67
2019-03-27T02:38:54.085Z,9.10
2019-03-27T02:41:23.583Z,7.33
2019-03-27T02:43:53.071Z,9.28
2019-03-27T02:46:25.108Z,7.47
2019-03-27T02:48:53.785Z,8.27
2019-03-27T02:51:23.487Z,9.17
2019-03-27T02:53:52.984Z,8.80
2019-03-27T02:56:22.470Z,7.50
2019-03-27T02:58:51.978Z,8.45
2019-03-27T03:01:21.483Z,6.53
2019-03-27T03:03:50.976Z,8.75
2019-03-27T03:06:20.524Z,7.17
2019-03-27T03:08:49.977Z,7.73
2019-03-27T03:11:19.537Z,9.37
2019-03-27T03:13:49.027Z,8.17
2019-03-27T03:16:18.523Z,8.37
2019-03-27T03:18:48.033Z,9.97
2019-03-27T03:21:17.537Z,8.30
2019-03-27T03:23:47.025Z,9.97
2019-03-27T03:26:16.557Z,8.43
2019-03-27T03:28:46.040Z,8.50
2019-03-27T03:31:15.586Z,7.17
2019-03-27T03:33:45.091Z,8.43
2019-03-27T03:36:14.655Z,9.00
2019-03-27T03:38:44.142Z,9.77
2019-03-27T03:41:13.664Z,8.47
2019-03-27T03:43:43.122Z,8.53
2019-03-27T03:46:12.723Z,8.40
2019-03-27T03:48:42.211Z,9.17
2019-03-27T03:51:11.870Z,9.57
2019-03-27T03:53:41.421Z,8.53
2019-03-27T03:56:11.810Z,8.83
2019-03-27T03:58:43.100Z,11.53
2019-03-27T04:01:13.083Z,9.20
2019-03-27T04:03:44.830Z,13.00
2019-03-27T04:06:14.364Z,11.63
2019-03-27T04:08:43.850Z,9.67
2019-03-27T04:11:13.411Z,8.80
2019-03-27T04:13:42.967Z,9.60
2019-03-27T04:16:12.477Z,8.97
2019-03-27T04:18:41.959Z,11.57
2019-03-27T04:21:49.832Z,10.33
2019-03-27T04:24:19.347Z,10.67
2019-03-27T04:26:48.858Z,10.50
2019-03-27T04:29:18.347Z,10.10
2019-03-27T04:31:47.882Z,12.45
2019-03-27T04:34:17.850Z,11.65
2019-03-27T04:36:47.382Z,10.40
2019-03-27T04:39:16.873Z,9.17
2019-03-27T04:41:46.418Z,13.13
2019-03-27T04:44:15.936Z,14.10
2019-03-27T04:46:46.136Z,11.35
2019-03-27T04:49:15.631Z,10.70
2019-03-27T04:51:45.128Z,12.10
2019-03-27T04:54:14.627Z,11.97
2019-03-27T04:56:44.143Z,12.67
2019-03-27T04:59:13.695Z,14.20
2019-03-27T05:01:43.256Z,13.72
2019-03-27T05:04:13.035Z,14.18
2019-03-27T05:06:42.542Z,12.65
2019-03-27T05:09:12.058Z,12.17
2019-03-27T05:11:42.401Z,14.14
2019-03-27T05:14:11.889Z,14.87
2019-03-27T05:17:00.725Z,13.23
2019-03-27T05:19:50.406Z,17.17
2019-03-27T05:22:19.939Z,15.40
2019-03-27T05:24:49.486Z,16.67
2019-03-27T05:27:18.984Z,13.23
2019-03-27T05:29:48.480Z,10.45
2019-03-27T05:32:18.040Z,13.10
2019-03-27T05:34:47.530Z,13.90
2019-03-27T05:37:17.056Z,13.30
2019-03-27T05:39:47.813Z,10.47
2019-03-27T05:42:36.690Z,11.97
2019-03-27T05:45:25.484Z,12.40
2019-03-27T05:47:59.929Z,12.13
2019-03-27T05:50:26.232Z,13.57
2019-03-27T05:52:55.742Z,10.87
2019-03-27T05:55:26.730Z,9.80
2019-03-27T05:57:56.223Z,13.30
2019-03-27T06:00:25.715Z,11.55
2019-03-27T06:02:55.263Z,12.57
2019-03-27T06:05:24.745Z,14.57
2019-03-27T06:07:54.586Z,10.73
2019-03-27T06:10:24.150Z,13.60
2019-03-27T06:12:54.351Z,12.77
2019-03-27T06:15:23.841Z,14.20
2019-03-27T06:17:53.347Z,14.33
2019-03-27T06:20:23.948Z,14.40
2019-03-27T06:22:53.475Z,13.90
2019-03-27T06:25:23.034Z,16.20
2019-03-27T06:27:52.544Z,13.43
2019-03-27T06:30:22.043Z,14.25
2019-03-27T06:32:52.150Z,16.37
2019-03-27T06:35:40.971Z,11.37
2019-03-27T06:38:10.474Z,11.00
2019-03-27T06:40:40.004Z,12.13
2019-03-27T06:43:09.463Z,12.00
2019-03-27T06:45:38.960Z,11.45
2019-03-27T06:48:08.547Z,13.93
2019-03-27T06:50:38.040Z,17.98
2019-03-27T06:53:07.647Z,24.63
2019-03-27T06:55:37.138Z,20.47
2019-03-27T06:58:06.673Z,19.13
2019-03-27T07:00:39.353Z,18.50
2019-03-27T07:03:10.079Z,22.93
2019-03-27T07:05:39.570Z,19.43
2019-03-27T07:08:09.088Z,20.70
2019-03-27T07:10:38.579Z,23.77
2019-03-27T07:13:08.091Z,24.63
2019-03-27T07:15:37.655Z,21.82
2019-03-27T07:18:07.238Z,22.20
2019-03-27T07:20:36.799Z,24.30
2019-03-27T07:23:06.433Z,23.00
2019-03-27T07:25:35.906Z,24.93
2019-03-27T07:28:05.426Z,28.50
2019-03-27T07:30:34.938Z,24.67
2019-03-27T07:33:04.589Z,22.80
2019-03-27T07:35:34.099Z,24.53
2019-03-27T07:38:03.682Z,27.73
2019-03-27T07:40:33.185Z,26.67
2019-03-27T07:43:02.703Z,29.83
2019-03-27T07:45:32.187Z,31.60
2019-03-27T07:48:01.707Z,30.97
2019-03-27T07:50:31.221Z,28.17
2019-03-27T07:53:00.749Z,28.83
2019-03-27T07:55:30.233Z,29.47
2019-03-27T07:57:59.739Z,26.33
2019-03-27T08:00:29.228Z,23.57
2019-03-27T08:02:58.734Z,22.63
2019-03-27T08:05:28.241Z,26.80
2019-03-27T08:07:57.794Z,25.97
2019-03-27T08:10:27.308Z,25.03
2019-03-27T08:12:56.833Z,23.70
2019-03-27T08:15:26.316Z,28.50
2019-03-27T08:17:55.805Z,23.90
2019-03-27T08:20:25.344Z,26.00
2019-03-27T08:22:54.854Z,26.20
2019-03-27T08:25:24.339Z,26.30
2019-03-27T08:27:53.825Z,24.43
2019-03-27T08:30:23.436Z,21.12
2019-03-27T08:32:52.924Z,25.23
2019-03-27T08:35:22.443Z,22.43
2019-03-27T08:37:51.934Z,17.17
2019-03-27T08:40:21.463Z,21.02
2019-03-27T08:42:50.932Z,23.57
2019-03-27T08:45:20.440Z,20.47
2019-03-27T08:47:49.933Z,21.50
2019-03-27T08:50:19.795Z,21.63
2019-03-27T08:52:49.305Z,17.23
2019-03-27T08:55:18.886Z,21.23
2019-03-27T08:58:07.762Z,23.60
2019-03-27T09:00:53.907Z,21.25
2019-03-27T09:03:23.471Z,20.30
2019-03-27T09:05:53.031Z,18.00
2019-03-27T09:08:22.550Z,15.53
2019-03-27T09:10:52.105Z,19.35
2019-03-27T09:13:21.685Z,15.27
2019-03-27T09:15:51.218Z,13.43
2019-03-27T09:18:20.749Z,16.83
2019-03-27T09:20:50.243Z,14.87
2019-03-27T09:23:19.756Z,15.17
2019-03-27T09:25:49.260Z,15.60
2019-03-27T09:28:18.780Z,14.07
2019-03-27T09:30:48.294Z,15.20
2019-03-27T09:33:17.761Z,13.00
2019-03-27T09:35:47.368Z,13.80
2019-03-27T09:38:36.271Z,12.43
2019-03-27T09:41:05.839Z,11.43
2019-03-27T09:43:36.270Z,10.63
2019-03-27T09:46:05.901Z,12.55
2019-03-27T09:48:35.410Z,15.10
2019-03-27T09:51:04.970Z,14.17
2019-03-27T09:53:34.548Z,13.58
2019-03-27T09:56:18.062Z,14.30
2019-03-27T09:58:35.331Z,14.97
2019-03-27T10:01:05.637Z,12.53
2019-03-27T10:03:35.147Z,12.57
2019-03-27T10:06:04.729Z,12.55
2019-03-27T10:08:34.225Z,13.90
2019-03-27T10:11:04.007Z,11.57
2019-03-27T10:13:33.584Z,13.10
2019-03-27T10:16:03.176Z,12.53
2019-03-27T10:18:32.685Z,12.82
2019-03-27T10:21:02.174Z,11.73
2019-03-27T10:23:32.620Z,13.00
2019-03-27T10:26:02.122Z,11.23
2019-03-27T10:28:31.693Z,10.60
2019-03-27T10:31:01.276Z,11.67
2019-03-27T10:33:30.876Z,10.67
2019-03-27T10:36:01.608Z,13.67
2019-03-27T10:38:31.118Z,11.87
2019-03-27T10:41:00.639Z,10.40
2019-03-27T10:43:30.148Z,10.17
2019-03-27T10:45:59.677Z,9.73
2019-03-27T10:48:30.175Z,9.38
2019-03-27T10:50:59.663Z,9.80
2019-03-27T10:53:29.174Z,13.23
2019-03-27T10:55:58.695Z,7.12
2019-03-27T10:58:28.328Z,25.77
2019-03-27T11:00:58.350Z,10.50
2019-03-27T11:03:27.854Z,12.70
2019-03-27T11:05:57.354Z,12.67
2019-03-27T11:08:26.859Z,12.50
2019-03-27T11:10:56.349Z,12.80
2019-03-27T11:13:26.577Z,12.28
2019-03-27T11:16:15.414Z,10.47
2019-03-27T11:18:44.911Z,10.53
2019-03-27T11:21:14.390Z,11.20
2019-03-27T11:23:43.895Z,12.47
2019-03-27T11:26:13.396Z,13.80
2019-03-27T11:28:42.941Z,13.03
2019-03-27T11:31:12.503Z,11.40
2019-03-27T11:33:42.005Z,11.93
2019-03-27T11:36:11.534Z,9.87
2019-03-27T11:38:41.061Z,11.33
2019-03-27T11:41:12.254Z,8.80
2019-03-27T11:43:54.269Z,9.87
2019-03-27T11:46:32.522Z,9.17
2019-03-27T11:49:02.020Z,8.80
2019-03-27T11:51:31.513Z,8.93
2019-03-27T11:54:01.015Z,8.63
2019-03-27T11:56:30.537Z,6.60
2019-03-27T11:59:00.057Z,5.57
2019-03-27T12:01:39.586Z,6.27
2019-03-27T12:04:00.754Z,5.93
2019-03-27T12:06:30.271Z,5.13
2019-03-27T12:08:59.772Z,5.23
2019-03-27T12:11:29.260Z,6.50
2019-03-27T12:13:58.772Z,7.70
2019-03-27T12:16:28.253Z,7.90
2019-03-27T12:18:57.826Z,6.43
2019-03-27T12:21:27.314Z,5.80
2019-03-27T12:23:56.831Z,11.80
2019-03-27T12:26:26.307Z,6.53
2019-03-27T12:28:55.812Z,6.15
2019-03-27T12:31:25.313Z,6.83
2019-03-27T12:33:54.812Z,8.10
2019-03-27T12:36:24.299Z,6.40
2019-03-27T12:38:53.799Z,6.97
2019-03-27T12:41:23.298Z,7.10
2019-03-27T12:43:52.803Z,10.33
2019-03-27T12:46:22.295Z,8.23
2019-03-27T12:48:51.814Z,7.13
2019-03-27T12:51:21.293Z,6.97
2019-03-27T12:53:50.827Z,7.12
2019-03-27T12:56:20.297Z,9.10
2019-03-27T12:58:49.856Z,19.97
2019-03-27T13:01:19.347Z,15.08
2019-03-27T13:03:48.835Z,6.43
2019-03-27T13:06:18.343Z,7.83
2019-03-27T13:08:49.629Z,7.77
2019-03-27T13:11:19.256Z,9.03
2019-03-27T13:13:48.789Z,12.20
2019-03-27T13:16:18.263Z,8.53
2019-03-27T13:18:47.771Z,13.67
2019-03-27T13:21:26.353Z,8.60
2019-03-27T13:23:48.855Z,8.13
2019-03-27T13:26:18.330Z,8.53
2019-03-27T13:28:49.289Z,11.70
2019-03-27T13:31:18.926Z,8.40
2019-03-27T13:33:50.417Z,9.20
2019-03-27T13:36:20.561Z,7.65
2019-03-27T13:38:50.528Z,7.30
2019-03-27T13:41:20.117Z,10.43
2019-03-27T13:43:49.747Z,9.77
2019-03-27T13:46:19.235Z,8.07
2019-03-27T13:48:49.644Z,9.90
2019-03-27T13:51:19.138Z,10.77
2019-03-27T13:53:48.644Z,9.65
2019-03-27T13:56:18.132Z,9.23
2019-03-27T13:58:47.636Z,10.00
2019-03-27T14:01:17.824Z,9.10
2019-03-27T14:03:47.326Z,7.05
2019-03-27T14:06:16.947Z,7.70
2019-03-27T14:08:46.469Z,9.20
2019-03-27T14:11:15.957Z,7.78
2019-03-27T14:13:45.966Z,8.60
2019-03-27T14:16:15.459Z,7.63
2019-03-27T14:18:44.945Z,8.17
2019-03-27T14:21:14.546Z,8.63
2019-03-27T14:23:44.036Z,9.25
2019-03-27T14:26:14.170Z,8.20
2019-03-27T14:28:43.689Z,9.40
2019-03-27T14:31:13.364Z,9.50
2019-03-27T14:33:42.878Z,7.40
2019-03-27T14:36:12.388Z,8.98
2019-03-27T14:38:42.332Z,8.40
2019-03-27T14:41:11.914Z,8.17
2019-03-27T14:43:42.286Z,8.63
2019-03-27T14:46:11.844Z,7.13
2019-03-27T14:48:41.332Z,9.03
2019-03-27T14:51:11.005Z,9.00
2019-03-27T14:53:40.475Z,7.13
2019-03-27T14:56:10.154Z,7.53
2019-03-27T14:58:39.633Z,8.00
2019-03-27T15:01:09.207Z,6.87
2019-03-27T15:03:38.759Z,6.90
2019-03-27T15:06:08.271Z,6.53
2019-03-27T15:08:37.787Z,7.50
2019-03-27T15:11:07.293Z,6.90
2019-03-27T15:13:36.882Z,7.87
2019-03-27T15:16:07.613Z,6.63
2019-03-27T15:18:37.125Z,8.03
2019-03-27T15:21:06.632Z,8.07
2019-03-27T15:23:36.111Z,6.60
2019-03-27T15:26:05.618Z,8.00
2019-03-27T15:28:36.144Z,9.45
2019-03-27T15:31:19.522Z,7.63
2019-03-27T15:33:37.049Z,8.43
2019-03-27T15:36:06.557Z,8.80
2019-03-27T15:38:36.069Z,9.53
2019-03-27T15:41:05.750Z,7.73
2019-03-27T15:43:35.287Z,7.83
2019-03-27T15:46:04.786Z,8.03
2019-03-27T15:48:34.336Z,8.90
2019-03-27T15:51:03.855Z,7.53
2019-03-27T15:53:33.347Z,9.97
2019-03-27T15:56:02.952Z,7.90
2019-03-27T15:58:32.583Z,8.60
2019-03-27T16:01:02.090Z,6.67
2019-03-27T16:03:31.598Z,8.40
2019-03-27T16:06:01.099Z,9.10
2019-03-27T16:08:30.594Z,10.60
2019-03-27T16:11:00.097Z,8.07
2019-03-27T16:13:29.613Z,8.53
2019-03-27T16:15:59.147Z,9.13
2019-03-27T16:18:28.647Z,8.80
2019-03-27T16:20:58.153Z,8.70
2019-03-27T16:23:27.725Z,12.00
2019-03-27T16:25:57.262Z,10.03
2019-03-27T16:28:26.740Z,8.63
2019-03-27T16:30:56.311Z,9.50
2019-03-27T16:33:25.848Z,7.53
2019-03-27T16:35:55.350Z,8.78
2019-03-27T16:38:24.946Z,10.67
2019-03-27T16:40:54.425Z,9.43
2019-03-27T16:43:23.924Z,9.07
2019-03-27T16:45:53.567Z,10.50
2019-03-27T16:48:23.064Z,9.60
2019-03-27T16:50:52.691Z,11.73
2019-03-27T16:53:22.204Z,9.05
2019-03-27T16:55:51.684Z,8.85
2019-03-27T16:58:21.199Z,9.43
2019-03-27T17:00:50.688Z,9.67
2019-03-27T17:03:20.206Z,10.63
2019-03-27T17:05:54.280Z,10.45
2019-03-27T17:08:21.064Z,9.87
2019-03-27T17:10:51.384Z,9.58
2019-03-27T17:13:20.969Z,10.30
2019-03-27T17:15:50.478Z,9.10
2019-03-27T17:18:20.007Z,10.20
2019-03-27T17:20:49.554Z,10.05
2019-03-27T17:23:20.300Z,10.70
2019-03-27T17:25:49.855Z,11.30
2019-03-27T17:28:19.381Z,11.00
2019-03-27T17:30:48.917Z,9.63
2019-03-27T17:33:18.434Z,10.87
2019-03-27T17:35:48.890Z,10.23
2019-03-27T17:38:18.400Z,10.03
2019-03-27T17:40:47.920Z,11.43
2019-03-27T17:43:17.430Z,11.93
2019-03-27T17:45:46.925Z,10.60
2019-03-27T17:48:17.101Z,13.40
2019-03-27T17:50:46.614Z,10.43
2019-03-27T17:53:16.174Z,9.87
2019-03-27T17:55:46.122Z,12.07
2019-03-27T17:58:15.640Z,12.07
2019-03-27T18:00:51.250Z,14.00
2019-03-27T18:03:21.234Z,9.90
2019-03-27T18:05:50.811Z,14.27
2019-03-27T18:08:20.396Z,15.63
2019-03-27T18:10:49.890Z,14.30
2019-03-27T18:13:19.404Z,13.65
2019-03-27T18:15:49.379Z,14.63
2019-03-27T18:18:18.928Z,13.03
2019-03-27T18:20:48.415Z,10.83
2019-03-27T18:23:17.930Z,13.07
2019-03-27T18:25:47.441Z,13.43
2019-03-27T18:28:18.432Z,12.13
2019-03-27T18:30:47.934Z,10.50
2019-03-27T18:33:17.616Z,10.53
2019-03-27T18:36:18.985Z,11.17
2019-03-27T18:38:48.526Z,11.90
2019-03-27T18:41:50.107Z,11.43
2019-03-27T18:44:19.701Z,13.97
2019-03-27T18:46:49.235Z,13.17
2019-03-27T18:49:18.710Z,11.20
2019-03-27T18:51:48.237Z,11.63
2019-03-27T18:54:17.748Z,14.17
2019-03-27T18:56:47.230Z,11.40
2019-03-27T18:59:16.896Z,13.13
2019-03-27T19:01:47.390Z,14.58
2019-03-27T19:04:16.902Z,14.33
2019-03-27T19:06:46.663Z,12.40
2019-03-27T19:09:16.181Z,14.57
2019-03-27T19:11:45.676Z,16.80
2019-03-27T19:14:15.200Z,13.95
2019-03-27T19:16:44.703Z,15.43
2019-03-27T19:19:14.222Z,15.27
2019-03-27T19:21:43.728Z,15.40
2019-03-27T19:24:16.543Z,16.60
2019-03-27T19:26:44.563Z,13.43
2019-03-27T19:29:33.419Z,13.07
2019-03-27T19:32:02.911Z,13.35
2019-03-27T19:34:51.870Z,13.48
2019-03-27T19:37:34.074Z,12.97
2019-03-27T19:40:04.407Z,11.60
2019-03-27T19:42:33.961Z,11.90
2019-03-27T19:45:04.723Z,14.03
2019-03-27T19:47:34.208Z,15.67
2019-03-27T19:50:04.973Z,12.83
2019-03-27T19:52:34.527Z,15.93
2019-03-27T19:55:04.857Z,15.03
2019-03-27T19:57:34.347Z,27.93
2019-03-27T20:00:08.915Z,19.40
2019-03-27T20:02:38.702Z,22.70
2019-03-27T20:08:16.029Z,15.77
2019-03-27T20:10:45.550Z,17.13
2019-03-27T20:13:15.063Z,12.27
2019-03-27T20:15:55.523Z,13.13
2019-03-27T20:18:37.550Z,15.93
2019-03-27T20:21:07.079Z,12.93
2019-03-27T20:23:36.603Z,11.70
2019-03-27T20:26:06.115Z,11.97
2019-03-27T20:28:35.639Z,12.47
2019-03-27T20:31:05.220Z,12.13
2019-03-27T20:33:37.994Z,14.70
2019-03-27T20:36:06.200Z,11.12
2019-03-27T20:38:35.772Z,12.15
2019-03-27T20:41:05.326Z,11.93
2019-03-27T20:43:34.833Z,10.00
2019-03-27T20:46:04.373Z,11.40
2019-03-27T20:48:33.875Z,14.33
2019-03-27T20:51:03.381Z,16.30
2019-03-27T20:53:32.892Z,13.27
2019-03-27T20:56:02.395Z,12.40
2019-03-27T20:58:31.910Z,13.93
2019-03-27T21:01:01.392Z,12.20
2019-03-27T21:03:30.904Z,16.43
2019-03-27T21:06:00.382Z,11.10
2019-03-27T21:08:29.896Z,10.83
2019-03-27T21:10:59.418Z,13.27
2019-03-27T21:13:28.933Z,12.80
2019-03-27T21:15:58.434Z,13.97
2019-03-27T21:18:27.939Z,15.63
2019-03-27T21:20:57.446Z,13.60
2019-03-27T21:23:26.960Z,13.63
2019-03-27T21:25:56.452Z,13.57
2019-03-27T21:28:25.942Z,12.63
2019-03-27T21:30:55.454Z,16.35
2019-03-27T21:33:24.960Z,15.60
2019-03-27T21:35:54.467Z,13.17
2019-03-27T21:38:23.962Z,14.27
2019-03-27T21:40:53.491Z,15.60
2019-03-27T21:43:22.973Z,17.00
2019-03-27T21:45:52.477Z,16.77
2019-03-27T21:48:21.977Z,16.67
2019-03-27T21:50:51.518Z,16.53
2019-03-27T21:53:21.042Z,16.43
2019-03-27T21:55:50.955Z,16.97
2019-03-27T21:58:20.453Z,15.13
2019-03-27T22:00:49.962Z,16.47
2019-03-27T22:03:19.513Z,15.23
2019-03-27T22:05:49.035Z,14.40
2019-03-27T22:08:18.548Z,13.22
2019-03-27T22:10:48.078Z,13.30
2019-03-27T22:13:17.561Z,17.57
2019-03-27T22:15:47.074Z,13.57
2019-03-27T22:18:16.568Z,18.70
2019-03-27T22:20:46.077Z,14.20
2019-03-27T22:23:15.611Z,17.50
2019-03-27T22:25:45.148Z,17.10
2019-03-27T22:28:14.658Z,16.47
2019-03-27T22:30:44.191Z,13.70
2019-03-27T22:33:13.676Z,15.20
2019-03-27T22:35:43.183Z,14.47
2019-03-27T22:38:12.684Z,17.20
2019-03-27T22:40:42.202Z,16.60
2019-03-27T22:43:11.754Z,16.63
2019-03-27T22:45:41.288Z,15.52
2019-03-27T22:48:12.042Z,14.57
2019-03-27T22:50:41.548Z,15.67
2019-03-27T22:53:11.066Z,16.67
2019-03-27T22:55:49.593Z,17.60
2019-03-27T22:58:13.075Z,15.20
2019-03-27T23:00:50.124Z,16.80
2019-03-27T23:03:19.805Z,16.63
2019-03-27T23:05:49.492Z,18.07
2019-03-27T23:08:19.067Z,15.40
2019-03-27T23:10:48.682Z,17.87
2019-03-27T23:13:18.174Z,16.50
2019-03-27T23:15:47.755Z,17.83
2019-03-27T23:18:17.285Z,18.93
2019-03-27T23:20:46.822Z,17.47
2019-03-27T23:23:16.331Z,17.20
2019-03-27T23:25:45.914Z,16.33
2019-03-27T23:28:15.428Z,19.23
2019-03-27T23:30:44.936Z,17.17
2019-03-27T23:33:14.497Z,15.50
2019-03-27T23:35:44.586Z,16.62
2019-03-27T23:38:14.182Z,16.27
2019-03-27T23:40:43.687Z,17.20
2019-03-27T23:43:13.943Z,17.05
2019-03-27T23:45:43.458Z,15.97
2019-03-27T23:48:12.952Z,15.50
2019-03-27T23:50:42.461Z,17.20
2019-03-27T23:53:11.970Z,17.03
2019-03-27T23:55:42.203Z,17.25
2019-03-27T23:58:11.831Z,16.47
